sensor_id;sensor_type;location;lat;lon;timestamp;P1;durP1;ratioP1;P2;durP2;ratioP2
81396;SDS011;70852;49.908;8.126;2023-11-21T00:00:24;2.38;;;0.60;;
81396;SDS011;70852;49.908;8.126;2023-11-21T00:02:50;1.55;;;0.68;;
81396;SDS011;70852;49.908;8.126;2023-11-21T00:05:15;1.45;;;0.68;;
81396;SDS011;70852;49.908;8.126;2023-11-21T00:07:41;1.75;;;0.50;;
81396;SDS011;70852;49.908;8.126;2023-11-21T00:10:10;0.70;;;0.38;;
81396;SDS011;70852;49.908;8.126;2023-11-21T00:12:39;3.22;;;0.75;;
81396;SDS011;70852;49.908;8.126;2023-11-21T00:15:08;1.23;;;0.60;;
81396;SDS011;70852;49.908;8.126;2023-11-21T00:17:35;1.45;;;0.50;;
81396;SDS011;70852;49.908;8.126;2023-11-21T00:20:05;2.65;;;0.68;;
81396;SDS011;70852;49.908;8.126;2023-11-21T00:22:32;1.27;;;0.60;;
81396;SDS011;70852;49.908;8.126;2023-11-21T00:25:03;1.73;;;0.75;;
81396;SDS011;70852;49.908;8.126;2023-11-21T00:27:36;1.88;;;0.65;;
81396;SDS011;70852;49.908;8.126;2023-11-21T00:30:04;2.75;;;1.13;;
81396;SDS011;70852;49.908;8.126;2023-11-21T00:32:30;1.55;;;0.80;;
81396;SDS011;70852;49.908;8.126;2023-11-21T00:34:56;2.70;;;0.95;;
81396;SDS011;70852;49.908;8.126;2023-11-21T00:37:21;3.08;;;0.90;;
81396;SDS011;70852;49.908;8.126;2023-11-21T00:39:46;2.65;;;0.98;;
81396;SDS011;70852;49.908;8.126;2023-11-21T00:42:12;3.95;;;1.23;;
81396;SDS011;70852;49.908;8.126;2023-11-21T00:44:39;2.08;;;1.00;;
81396;SDS011;70852;49.908;8.126;2023-11-21T00:47:07;2.33;;;0.90;;
81396;SDS011;70852;49.908;8.126;2023-11-21T00:49:35;3.47;;;1.00;;
81396;SDS011;70852;49.908;8.126;2023-11-21T00:52:03;2.25;;;1.00;;
81396;SDS011;70852;49.908;8.126;2023-11-21T00:54:28;1.70;;;0.95;;
81396;SDS011;70852;49.908;8.126;2023-11-21T00:56:59;2.20;;;1.00;;
81396;SDS011;70852;49.908;8.126;2023-11-21T00:59:24;2.10;;;0.90;;
81396;SDS011;70852;49.908;8.126;2023-11-21T01:01:52;2.30;;;1.23;;
81396;SDS011;70852;49.908;8.126;2023-11-21T01:04:19;2.00;;;0.90;;
81396;SDS011;70852;49.908;8.126;2023-11-21T01:06:49;2.13;;;1.05;;
81396;SDS011;70852;49.908;8.126;2023-11-21T01:09:14;2.42;;;0.93;;
81396;SDS011;70852;49.908;8.126;2023-11-21T01:11:39;2.65;;;1.17;;
81396;SDS011;70852;49.908;8.126;2023-11-21T01:14:05;2.30;;;0.82;;
81396;SDS011;70852;49.908;8.126;2023-11-21T01:16:34;2.83;;;1.05;;
81396;SDS011;70852;49.908;8.126;2023-11-21T01:19:02;4.78;;;1.13;;
81396;SDS011;70852;49.908;8.126;2023-11-21T01:21:29;2.78;;;1.10;;
81396;SDS011;70852;49.908;8.126;2023-11-21T01:23:55;4.13;;;1.20;;
81396;SDS011;70852;49.908;8.126;2023-11-21T01:26:23;2.33;;;1.10;;
81396;SDS011;70852;49.908;8.126;2023-11-21T01:28:48;2.25;;;1.10;;
81396;SDS011;70852;49.908;8.126;2023-11-21T01:31:16;4.68;;;1.25;;
81396;SDS011;70852;49.908;8.126;2023-11-21T01:33:41;2.53;;;1.20;;
81396;SDS011;70852;49.908;8.126;2023-11-21T01:36:07;2.20;;;1.05;;
81396;SDS011;70852;49.908;8.126;2023-11-21T01:38:35;3.90;;;1.08;;
81396;SDS011;70852;49.908;8.126;2023-11-21T01:41:00;3.10;;;1.15;;
81396;SDS011;70852;49.908;8.126;2023-11-21T01:43:26;2.50;;;0.95;;
81396;SDS011;70852;49.908;8.126;2023-11-21T01:45:53;4.18;;;1.52;;
81396;SDS011;70852;49.908;8.126;2023-11-21T01:48:22;3.22;;;1.10;;
81396;SDS011;70852;49.908;8.126;2023-11-21T01:50:47;2.17;;;1.00;;
81396;SDS011;70852;49.908;8.126;2023-11-21T01:53:15;3.25;;;1.17;;
81396;SDS011;70852;49.908;8.126;2023-11-21T01:55:43;2.08;;;1.02;;
81396;SDS011;70852;49.908;8.126;2023-11-21T01:58:10;2.85;;;1.20;;
81396;SDS011;70852;49.908;8.126;2023-11-21T02:00:39;2.72;;;1.10;;
81396;SDS011;70852;49.908;8.126;2023-11-21T02:03:04;4.30;;;1.40;;
81396;SDS011;70852;49.908;8.126;2023-11-21T02:05:34;3.05;;;1.20;;
81396;SDS011;70852;49.908;8.126;2023-11-21T02:07:59;5.82;;;1.40;;
81396;SDS011;70852;49.908;8.126;2023-11-21T02:10:25;4.45;;;1.65;;
81396;SDS011;70852;49.908;8.126;2023-11-21T02:12:51;2.42;;;1.33;;
81396;SDS011;70852;49.908;8.126;2023-11-21T02:15:19;4.10;;;1.42;;
81396;SDS011;70852;49.908;8.126;2023-11-21T02:17:48;4.28;;;1.42;;
81396;SDS011;70852;49.908;8.126;2023-11-21T02:20:19;2.78;;;1.50;;
81396;SDS011;70852;49.908;8.126;2023-11-21T02:22:51;3.83;;;1.50;;
81396;SDS011;70852;49.908;8.126;2023-11-21T02:25:22;3.65;;;1.73;;
81396;SDS011;70852;49.908;8.126;2023-11-21T02:27:54;4.88;;;1.83;;
81396;SDS011;70852;49.908;8.126;2023-11-21T02:30:23;3.22;;;1.45;;
81396;SDS011;70852;49.908;8.126;2023-11-21T02:32:53;2.95;;;1.48;;
81396;SDS011;70852;49.908;8.126;2023-11-21T02:35:21;2.88;;;1.50;;
81396;SDS011;70852;49.908;8.126;2023-11-21T02:37:47;3.83;;;1.80;;
81396;SDS011;70852;49.908;8.126;2023-11-21T02:40:13;3.08;;;1.73;;
81396;SDS011;70852;49.908;8.126;2023-11-21T02:42:45;4.72;;;1.42;;
81396;SDS011;70852;49.908;8.126;2023-11-21T02:45:10;2.85;;;1.50;;
81396;SDS011;70852;49.908;8.126;2023-11-21T02:47:41;5.28;;;1.77;;
81396;SDS011;70852;49.908;8.126;2023-11-21T02:50:12;4.93;;;1.88;;
81396;SDS011;70852;49.908;8.126;2023-11-21T02:52:40;4.07;;;2.08;;
81396;SDS011;70852;49.908;8.126;2023-11-21T02:55:08;5.63;;;2.05;;
81396;SDS011;70852;49.908;8.126;2023-11-21T02:57:35;4.95;;;2.10;;
81396;SDS011;70852;49.908;8.126;2023-11-21T03:00:01;3.72;;;2.10;;
81396;SDS011;70852;49.908;8.126;2023-11-21T03:02:26;6.18;;;2.05;;
81396;SDS011;70852;49.908;8.126;2023-11-21T03:04:51;6.03;;;2.25;;
81396;SDS011;70852;49.908;8.126;2023-11-21T03:07:19;3.95;;;1.95;;
81396;SDS011;70852;49.908;8.126;2023-11-21T03:09:44;4.40;;;1.98;;
81396;SDS011;70852;49.908;8.126;2023-11-21T03:12:10;4.95;;;2.35;;
81396;SDS011;70852;49.908;8.126;2023-11-21T03:14:39;4.50;;;2.30;;
81396;SDS011;70852;49.908;8.126;2023-11-21T03:17:05;5.45;;;2.50;;
81396;SDS011;70852;49.908;8.126;2023-11-21T03:19:30;4.28;;;2.05;;
81396;SDS011;70852;49.908;8.126;2023-11-21T03:21:56;4.72;;;2.22;;
81396;SDS011;70852;49.908;8.126;2023-11-21T03:24:21;5.47;;;2.22;;
81396;SDS011;70852;49.908;8.126;2023-11-21T03:26:47;3.83;;;1.98;;
81396;SDS011;70852;49.908;8.126;2023-11-21T03:29:13;5.15;;;2.15;;
81396;SDS011;70852;49.908;8.126;2023-11-21T03:31:41;3.53;;;1.83;;
81396;SDS011;70852;49.908;8.126;2023-11-21T03:34:06;4.40;;;2.20;;
81396;SDS011;70852;49.908;8.126;2023-11-21T03:36:38;5.15;;;1.88;;
81396;SDS011;70852;49.908;8.126;2023-11-21T03:39:04;3.60;;;1.83;;
81396;SDS011;70852;49.908;8.126;2023-11-21T03:41:30;4.03;;;2.05;;
81396;SDS011;70852;49.908;8.126;2023-11-21T03:43:58;6.10;;;2.70;;
81396;SDS011;70852;49.908;8.126;2023-11-21T03:46:24;6.30;;;2.78;;
81396;SDS011;70852;49.908;8.126;2023-11-21T03:48:49;6.32;;;2.80;;
81396;SDS011;70852;49.908;8.126;2023-11-21T03:51:15;6.70;;;3.30;;
81396;SDS011;70852;49.908;8.126;2023-11-21T03:53:42;6.28;;;3.10;;
81396;SDS011;70852;49.908;8.126;2023-11-21T03:56:12;5.88;;;2.78;;
81396;SDS011;70852;49.908;8.126;2023-11-21T03:58:39;5.63;;;3.00;;
81396;SDS011;70852;49.908;8.126;2023-11-21T04:01:04;5.57;;;2.85;;
81396;SDS011;70852;49.908;8.126;2023-11-21T04:03:34;5.20;;;2.78;;
81396;SDS011;70852;49.908;8.126;2023-11-21T04:06:00;6.20;;;2.95;;
81396;SDS011;70852;49.908;8.126;2023-11-21T04:08:28;5.85;;;3.03;;
81396;SDS011;70852;49.908;8.126;2023-11-21T04:10:56;6.53;;;2.88;;
81396;SDS011;70852;49.908;8.126;2023-11-21T04:13:21;5.60;;;2.90;;
81396;SDS011;70852;49.908;8.126;2023-11-21T04:15:47;6.00;;;2.90;;
81396;SDS011;70852;49.908;8.126;2023-11-21T04:18:12;6.68;;;2.95;;
81396;SDS011;70852;49.908;8.126;2023-11-21T04:20:37;5.70;;;2.55;;
81396;SDS011;70852;49.908;8.126;2023-11-21T04:23:04;5.65;;;2.92;;
81396;SDS011;70852;49.908;8.126;2023-11-21T04:25:30;5.72;;;2.92;;
81396;SDS011;70852;49.908;8.126;2023-11-21T04:27:55;5.63;;;3.20;;
81396;SDS011;70852;49.908;8.126;2023-11-21T04:30:20;5.75;;;2.95;;
81396;SDS011;70852;49.908;8.126;2023-11-21T04:32:48;5.78;;;3.08;;
81396;SDS011;70852;49.908;8.126;2023-11-21T04:35:16;5.47;;;2.75;;
81396;SDS011;70852;49.908;8.126;2023-11-21T04:37:41;5.53;;;3.08;;
81396;SDS011;70852;49.908;8.126;2023-11-21T04:40:07;5.05;;;2.47;;
81396;SDS011;70852;49.908;8.126;2023-11-21T04:42:35;4.78;;;2.63;;
81396;SDS011;70852;49.908;8.126;2023-11-21T04:45:01;6.00;;;2.60;;
81396;SDS011;70852;49.908;8.126;2023-11-21T04:47:30;6.13;;;2.10;;
81396;SDS011;70852;49.908;8.126;2023-11-21T04:49:55;3.63;;;1.75;;
81396;SDS011;70852;49.908;8.126;2023-11-21T04:52:22;2.75;;;1.48;;
81396;SDS011;70852;49.908;8.126;2023-11-21T04:54:47;3.60;;;1.60;;
81396;SDS011;70852;49.908;8.126;2023-11-21T04:57:13;3.25;;;1.50;;
81396;SDS011;70852;49.908;8.126;2023-11-21T04:59:39;2.55;;;1.13;;
81396;SDS011;70852;49.908;8.126;2023-11-21T05:02:04;3.45;;;1.10;;
81396;SDS011;70852;49.908;8.126;2023-11-21T05:04:30;2.10;;;1.00;;
81396;SDS011;70852;49.908;8.126;2023-11-21T05:06:55;1.98;;;0.98;;
81396;SDS011;70852;49.908;8.126;2023-11-21T05:09:24;2.78;;;1.17;;
81396;SDS011;70852;49.908;8.126;2023-11-21T05:11:49;2.55;;;0.95;;
81396;SDS011;70852;49.908;8.126;2023-11-21T05:14:14;2.08;;;0.90;;
81396;SDS011;70852;49.908;8.126;2023-11-21T05:16:40;2.20;;;1.13;;
81396;SDS011;70852;49.908;8.126;2023-11-21T05:19:05;2.15;;;1.10;;
81396;SDS011;70852;49.908;8.126;2023-11-21T05:21:34;4.15;;;1.40;;
81396;SDS011;70852;49.908;8.126;2023-11-21T05:24:01;2.67;;;1.10;;
81396;SDS011;70852;49.908;8.126;2023-11-21T05:26:31;4.00;;;1.10;;
81396;SDS011;70852;49.908;8.126;2023-11-21T05:28:59;3.15;;;0.90;;
81396;SDS011;70852;49.908;8.126;2023-11-21T05:31:24;3.67;;;1.30;;
81396;SDS011;70852;49.908;8.126;2023-11-21T05:33:51;3.42;;;1.58;;
81396;SDS011;70852;49.908;8.126;2023-11-21T05:36:19;3.90;;;1.15;;
81396;SDS011;70852;49.908;8.126;2023-11-21T05:38:44;3.63;;;1.67;;
81396;SDS011;70852;49.908;8.126;2023-11-21T05:41:12;2.40;;;1.30;;
81396;SDS011;70852;49.908;8.126;2023-11-21T05:43:38;2.88;;;1.35;;
81396;SDS011;70852;49.908;8.126;2023-11-21T05:46:11;2.13;;;1.23;;
81396;SDS011;70852;49.908;8.126;2023-11-21T05:48:38;2.83;;;1.48;;
81396;SDS011;70852;49.908;8.126;2023-11-21T05:51:04;4.15;;;2.10;;
81396;SDS011;70852;49.908;8.126;2023-11-21T05:53:36;3.65;;;2.83;;
81396;SDS011;70852;49.908;8.126;2023-11-21T05:56:04;6.10;;;2.00;;
81396;SDS011;70852;49.908;8.126;2023-11-21T05:58:32;5.03;;;2.00;;
81396;SDS011;70852;49.908;8.126;2023-11-21T06:01:02;3.42;;;1.65;;
81396;SDS011;70852;49.908;8.126;2023-11-21T06:03:35;4.57;;;1.80;;
81396;SDS011;70852;49.908;8.126;2023-11-21T06:06:00;4.00;;;1.88;;
81396;SDS011;70852;49.908;8.126;2023-11-21T06:08:28;4.03;;;1.85;;
81396;SDS011;70852;49.908;8.126;2023-11-21T06:11:01;3.17;;;1.55;;
81396;SDS011;70852;49.908;8.126;2023-11-21T06:13:26;3.88;;;1.92;;
81396;SDS011;70852;49.908;8.126;2023-11-21T06:18:25;4.78;;;1.90;;
81396;SDS011;70852;49.908;8.126;2023-11-21T06:20:50;5.78;;;2.60;;
81396;SDS011;70852;49.908;8.126;2023-11-21T06:23:20;5.30;;;2.90;;
81396;SDS011;70852;49.908;8.126;2023-11-21T06:25:45;6.30;;;3.10;;
81396;SDS011;70852;49.908;8.126;2023-11-21T06:28:11;7.45;;;3.30;;
81396;SDS011;70852;49.908;8.126;2023-11-21T06:30:36;7.10;;;3.28;;
81396;SDS011;70852;49.908;8.126;2023-11-21T06:33:01;6.20;;;3.17;;
81396;SDS011;70852;49.908;8.126;2023-11-21T06:35:27;7.15;;;2.70;;
81396;SDS011;70852;49.908;8.126;2023-11-21T06:37:55;8.32;;;3.15;;
81396;SDS011;70852;49.908;8.126;2023-11-21T06:40:20;5.78;;;2.95;;
81396;SDS011;70852;49.908;8.126;2023-11-21T06:42:48;5.68;;;2.58;;
81396;SDS011;70852;49.908;8.126;2023-11-21T06:45:13;5.28;;;2.40;;
81396;SDS011;70852;49.908;8.126;2023-11-21T06:47:40;5.95;;;2.60;;
81396;SDS011;70852;49.908;8.126;2023-11-21T06:50:05;6.40;;;3.00;;
81396;SDS011;70852;49.908;8.126;2023-11-21T06:52:34;6.03;;;2.15;;
81396;SDS011;70852;49.908;8.126;2023-11-21T06:54:59;4.25;;;2.08;;
81396;SDS011;70852;49.908;8.126;2023-11-21T06:57:27;4.22;;;2.25;;
81396;SDS011;70852;49.908;8.126;2023-11-21T06:59:52;4.47;;;2.25;;
81396;SDS011;70852;49.908;8.126;2023-11-21T07:02:18;3.88;;;2.22;;
81396;SDS011;70852;49.908;8.126;2023-11-21T07:04:46;3.45;;;2.00;;
81396;SDS011;70852;49.908;8.126;2023-11-21T07:07:11;4.22;;;2.47;;
81396;SDS011;70852;49.908;8.126;2023-11-21T07:09:39;4.68;;;2.30;;
81396;SDS011;70852;49.908;8.126;2023-11-21T07:12:05;3.35;;;1.90;;
81396;SDS011;70852;49.908;8.126;2023-11-21T07:14:34;3.72;;;1.92;;
81396;SDS011;70852;49.908;8.126;2023-11-21T07:17:02;3.20;;;1.80;;
81396;SDS011;70852;49.908;8.126;2023-11-21T07:19:28;3.20;;;1.65;;
81396;SDS011;70852;49.908;8.126;2023-11-21T07:21:54;3.97;;;2.08;;
81396;SDS011;70852;49.908;8.126;2023-11-21T07:24:21;4.70;;;2.35;;
81396;SDS011;70852;49.908;8.126;2023-11-21T07:26:48;3.78;;;2.15;;
81396;SDS011;70852;49.908;8.126;2023-11-21T07:29:17;3.78;;;2.00;;
81396;SDS011;70852;49.908;8.126;2023-11-21T07:31:45;6.43;;;2.20;;
81396;SDS011;70852;49.908;8.126;2023-11-21T07:34:10;5.13;;;2.05;;
81396;SDS011;70852;49.908;8.126;2023-11-21T07:36:38;4.57;;;2.20;;
81396;SDS011;70852;49.908;8.126;2023-11-21T07:39:06;5.35;;;2.35;;
81396;SDS011;70852;49.908;8.126;2023-11-21T07:41:31;4.50;;;2.25;;
81396;SDS011;70852;49.908;8.126;2023-11-21T07:43:57;4.00;;;1.98;;
81396;SDS011;70852;49.908;8.126;2023-11-21T07:46:25;3.88;;;2.00;;
81396;SDS011;70852;49.908;8.126;2023-11-21T07:48:52;4.97;;;2.63;;
81396;SDS011;70852;49.908;8.126;2023-11-21T07:51:18;4.72;;;2.20;;
81396;SDS011;70852;49.908;8.126;2023-11-21T07:53:47;5.22;;;2.25;;
81396;SDS011;70852;49.908;8.126;2023-11-21T07:56:14;5.60;;;2.28;;
81396;SDS011;70852;49.908;8.126;2023-11-21T07:58:40;4.68;;;2.50;;
81396;SDS011;70852;49.908;8.126;2023-11-21T08:01:05;3.58;;;1.77;;
81396;SDS011;70852;49.908;8.126;2023-11-21T08:03:33;4.60;;;2.40;;
81396;SDS011;70852;49.908;8.126;2023-11-21T08:05:58;4.13;;;2.20;;
81396;SDS011;70852;49.908;8.126;2023-11-21T08:08:24;3.42;;;2.22;;
81396;SDS011;70852;49.908;8.126;2023-11-21T08:10:53;4.40;;;2.20;;
81396;SDS011;70852;49.908;8.126;2023-11-21T08:13:24;3.88;;;1.95;;
81396;SDS011;70852;49.908;8.126;2023-11-21T08:15:56;3.78;;;1.80;;
81396;SDS011;70852;49.908;8.126;2023-11-21T08:18:27;3.92;;;2.03;;
81396;SDS011;70852;49.908;8.126;2023-11-21T08:20:57;3.50;;;1.50;;
81396;SDS011;70852;49.908;8.126;2023-11-21T08:23:23;3.83;;;1.88;;
81396;SDS011;70852;49.908;8.126;2023-11-21T08:25:50;2.40;;;1.30;;
81396;SDS011;70852;49.908;8.126;2023-11-21T08:28:16;3.47;;;1.63;;
81396;SDS011;70852;49.908;8.126;2023-11-21T08:30:41;2.72;;;1.35;;
81396;SDS011;70852;49.908;8.126;2023-11-21T08:33:07;2.95;;;1.30;;
81396;SDS011;70852;49.908;8.126;2023-11-21T08:35:33;2.17;;;1.10;;
81396;SDS011;70852;49.908;8.126;2023-11-21T08:38:02;2.03;;;1.10;;
81396;SDS011;70852;49.908;8.126;2023-11-21T08:40:27;2.40;;;1.17;;
81396;SDS011;70852;49.908;8.126;2023-11-21T08:42:53;2.35;;;1.35;;
81396;SDS011;70852;49.908;8.126;2023-11-21T08:45:23;1.88;;;1.13;;
81396;SDS011;70852;49.908;8.126;2023-11-21T08:47:51;2.58;;;0.98;;
81396;SDS011;70852;49.908;8.126;2023-11-21T08:50:17;3.13;;;1.27;;
81396;SDS011;70852;49.908;8.126;2023-11-21T08:52:46;2.30;;;1.15;;
81396;SDS011;70852;49.908;8.126;2023-11-21T08:55:14;3.15;;;0.98;;
81396;SDS011;70852;49.908;8.126;2023-11-21T08:57:43;3.17;;;1.20;;
81396;SDS011;70852;49.908;8.126;2023-11-21T09:00:12;5.55;;;1.23;;
81396;SDS011;70852;49.908;8.126;2023-11-21T09:02:43;2.38;;;1.17;;
81396;SDS011;70852;49.908;8.126;2023-11-21T09:05:10;2.47;;;1.05;;
81396;SDS011;70852;49.908;8.126;2023-11-21T09:07:39;2.65;;;1.20;;
81396;SDS011;70852;49.908;8.126;2023-11-21T09:10:11;4.45;;;1.23;;
81396;SDS011;70852;49.908;8.126;2023-11-21T09:12:39;3.58;;;1.10;;
81396;SDS011;70852;49.908;8.126;2023-11-21T09:15:08;2.70;;;1.20;;
81396;SDS011;70852;49.908;8.126;2023-11-21T09:17:39;2.17;;;1.00;;
81396;SDS011;70852;49.908;8.126;2023-11-21T09:20:05;2.95;;;1.42;;
81396;SDS011;70852;49.908;8.126;2023-11-21T09:22:31;2.05;;;1.20;;
81396;SDS011;70852;49.908;8.126;2023-11-21T09:24:57;3.80;;;1.40;;
81396;SDS011;70852;49.908;8.126;2023-11-21T09:27:25;3.85;;;1.40;;
81396;SDS011;70852;49.908;8.126;2023-11-21T09:29:52;5.43;;;1.50;;
81396;SDS011;70852;49.908;8.126;2023-11-21T09:32:21;3.78;;;1.48;;
81396;SDS011;70852;49.908;8.126;2023-11-21T09:34:46;5.32;;;1.60;;
81396;SDS011;70852;49.908;8.126;2023-11-21T09:37:16;3.80;;;1.65;;
81396;SDS011;70852;49.908;8.126;2023-11-21T09:39:42;3.63;;;1.13;;
81396;SDS011;70852;49.908;8.126;2023-11-21T09:47:23;4.40;;;1.50;;
81396;SDS011;70852;49.908;8.126;2023-11-21T09:49:49;5.20;;;1.50;;
81396;SDS011;70852;49.908;8.126;2023-11-21T09:52:24;3.60;;;1.35;;
81396;SDS011;70852;49.908;8.126;2023-11-21T09:54:51;4.57;;;1.30;;
81396;SDS011;70852;49.908;8.126;2023-11-21T09:57:24;2.13;;;1.15;;
81396;SDS011;70852;49.908;8.126;2023-11-21T09:59:53;7.13;;;1.60;;
81396;SDS011;70852;49.908;8.126;2023-11-21T10:02:24;3.53;;;1.55;;
81396;SDS011;70852;49.908;8.126;2023-11-21T10:04:51;3.03;;;1.23;;
81396;SDS011;70852;49.908;8.126;2023-11-21T10:07:17;2.58;;;1.30;;
81396;SDS011;70852;49.908;8.126;2023-11-21T10:09:47;4.70;;;1.58;;
81396;SDS011;70852;49.908;8.126;2023-11-21T10:12:14;3.75;;;1.40;;
81396;SDS011;70852;49.908;8.126;2023-11-21T10:14:41;4.63;;;1.50;;
81396;SDS011;70852;49.908;8.126;2023-11-21T10:17:09;4.13;;;1.48;;
81396;SDS011;70852;49.908;8.126;2023-11-21T10:19:37;4.20;;;1.58;;
81396;SDS011;70852;49.908;8.126;2023-11-21T10:22:04;3.28;;;1.23;;
81396;SDS011;70852;49.908;8.126;2023-11-21T10:26:59;3.83;;;1.40;;
81396;SDS011;70852;49.908;8.126;2023-11-21T10:29:28;6.20;;;2.05;;
81396;SDS011;70852;49.908;8.126;2023-11-21T10:31:55;5.80;;;1.52;;
81396;SDS011;70852;49.908;8.126;2023-11-21T10:34:22;2.58;;;1.48;;
81396;SDS011;70852;49.908;8.126;2023-11-21T10:36:48;3.45;;;1.83;;
81396;SDS011;70852;49.908;8.126;2023-11-21T10:39:17;5.40;;;2.10;;
81396;SDS011;70852;49.908;8.126;2023-11-21T10:41:51;4.82;;;1.77;;
81396;SDS011;70852;49.908;8.126;2023-11-21T10:44:16;4.18;;;1.95;;
81396;SDS011;70852;49.908;8.126;2023-11-21T10:46:52;3.78;;;1.95;;
81396;SDS011;70852;49.908;8.126;2023-11-21T10:49:21;5.28;;;2.20;;
81396;SDS011;70852;49.908;8.126;2023-11-21T10:51:49;5.57;;;1.75;;
81396;SDS011;70852;49.908;8.126;2023-11-21T10:54:23;4.88;;;1.60;;
81396;SDS011;70852;49.908;8.126;2023-11-21T10:56:51;3.40;;;1.45;;
81396;SDS011;70852;49.908;8.126;2023-11-21T10:59:23;4.05;;;1.70;;
81396;SDS011;70852;49.908;8.126;2023-11-21T11:01:59;4.47;;;1.70;;
81396;SDS011;70852;49.908;8.126;2023-11-21T11:04:28;3.25;;;1.50;;
81396;SDS011;70852;49.908;8.126;2023-11-21T11:07:02;5.10;;;1.50;;
81396;SDS011;70852;49.908;8.126;2023-11-21T11:09:34;5.03;;;1.30;;
81396;SDS011;70852;49.908;8.126;2023-11-21T11:12:01;3.92;;;2.15;;
81396;SDS011;70852;49.908;8.126;2023-11-21T11:14:27;3.20;;;1.40;;
81396;SDS011;70852;49.908;8.126;2023-11-21T11:16:57;3.60;;;1.50;;
81396;SDS011;70852;49.908;8.126;2023-11-21T11:19:29;3.50;;;1.30;;
81396;SDS011;70852;49.908;8.126;2023-11-21T11:22:01;4.60;;;1.50;;
81396;SDS011;70852;49.908;8.126;2023-11-21T11:27:22;4.38;;;1.60;;
81396;SDS011;70852;49.908;8.126;2023-11-21T11:30:43;3.03;;;1.60;;
81396;SDS011;70852;49.908;8.126;2023-11-21T11:38:36;3.35;;;1.50;;
81396;SDS011;70852;49.908;8.126;2023-11-21T11:41:04;3.92;;;1.92;;
81396;SDS011;70852;49.908;8.126;2023-11-21T11:43:34;4.97;;;1.60;;
81396;SDS011;70852;49.908;8.126;2023-11-21T11:46:08;3.97;;;1.77;;
81396;SDS011;70852;49.908;8.126;2023-11-21T11:48:36;4.35;;;1.60;;
81396;SDS011;70852;49.908;8.126;2023-11-21T11:51:04;3.80;;;1.60;;
81396;SDS011;70852;49.908;8.126;2023-11-21T11:53:39;4.80;;;1.40;;
81396;SDS011;70852;49.908;8.126;2023-11-21T11:58:48;3.55;;;1.45;;
81396;SDS011;70852;49.908;8.126;2023-11-21T12:01:21;3.70;;;1.40;;
81396;SDS011;70852;49.908;8.126;2023-11-21T12:06:39;3.65;;;1.35;;
81396;SDS011;70852;49.908;8.126;2023-11-21T12:09:16;4.22;;;1.45;;
81396;SDS011;70852;49.908;8.126;2023-11-21T12:11:46;3.97;;;1.40;;
81396;SDS011;70852;49.908;8.126;2023-11-21T12:14:12;3.63;;;1.50;;
81396;SDS011;70852;49.908;8.126;2023-11-21T12:16:39;4.70;;;1.55;;
81396;SDS011;70852;49.908;8.126;2023-11-21T12:19:04;3.28;;;1.23;;
81396;SDS011;70852;49.908;8.126;2023-11-21T12:21:30;4.35;;;1.23;;
81396;SDS011;70852;49.908;8.126;2023-11-21T12:23:59;3.40;;;1.50;;
81396;SDS011;70852;49.908;8.126;2023-11-21T12:26:31;4.10;;;1.40;;
81396;SDS011;70852;49.908;8.126;2023-11-21T12:28:58;3.97;;;1.58;;
81396;SDS011;70852;49.908;8.126;2023-11-21T12:31:28;6.68;;;1.58;;
81396;SDS011;70852;49.908;8.126;2023-11-21T12:33:54;4.32;;;1.60;;
81396;SDS011;70852;49.908;8.126;2023-11-21T12:36:23;4.05;;;1.58;;
81396;SDS011;70852;49.908;8.126;2023-11-21T12:38:50;4.35;;;1.65;;
81396;SDS011;70852;49.908;8.126;2023-11-21T12:41:16;3.60;;;1.55;;
81396;SDS011;70852;49.908;8.126;2023-11-21T12:43:43;4.70;;;1.65;;
81396;SDS011;70852;49.908;8.126;2023-11-21T12:46:12;3.78;;;1.50;;
81396;SDS011;70852;49.908;8.126;2023-11-21T12:48:45;3.88;;;1.52;;
81396;SDS011;70852;49.908;8.126;2023-11-21T12:51:12;4.07;;;1.80;;
81396;SDS011;70852;49.908;8.126;2023-11-21T12:53:39;3.65;;;1.50;;
81396;SDS011;70852;49.908;8.126;2023-11-21T12:58:38;4.40;;;1.58;;
81396;SDS011;70852;49.908;8.126;2023-11-21T13:01:08;3.72;;;1.60;;
81396;SDS011;70852;49.908;8.126;2023-11-21T13:03:39;3.85;;;1.65;;
81396;SDS011;70852;49.908;8.126;2023-11-21T13:06:07;5.03;;;2.03;;
81396;SDS011;70852;49.908;8.126;2023-11-21T13:08:33;3.50;;;1.48;;
81396;SDS011;70852;49.908;8.126;2023-11-21T13:11:06;4.32;;;1.85;;
81396;SDS011;70852;49.908;8.126;2023-11-21T13:13:32;4.18;;;1.80;;
81396;SDS011;70852;49.908;8.126;2023-11-21T13:15:59;3.60;;;1.88;;
81396;SDS011;70852;49.908;8.126;2023-11-21T13:18:28;4.53;;;1.98;;
81396;SDS011;70852;49.908;8.126;2023-11-21T13:20:54;3.47;;;1.70;;
81396;SDS011;70852;49.908;8.126;2023-11-21T13:23:20;4.47;;;1.90;;
81396;SDS011;70852;49.908;8.126;2023-11-21T13:25:51;6.18;;;2.08;;
81396;SDS011;70852;49.908;8.126;2023-11-21T13:28:17;4.60;;;1.88;;
81396;SDS011;70852;49.908;8.126;2023-11-21T13:33:13;4.97;;;2.00;;
81396;SDS011;70852;49.908;8.126;2023-11-21T13:35:42;4.60;;;1.52;;
81396;SDS011;70852;49.908;8.126;2023-11-21T13:38:16;5.38;;;1.90;;
81396;SDS011;70852;49.908;8.126;2023-11-21T13:40:47;3.97;;;1.88;;
81396;SDS011;70852;49.908;8.126;2023-11-21T13:43:17;5.85;;;2.30;;
81396;SDS011;70852;49.908;8.126;2023-11-21T13:45:47;5.35;;;2.28;;
81396;SDS011;70852;49.908;8.126;2023-11-21T13:48:17;4.13;;;1.95;;
81396;SDS011;70852;49.908;8.126;2023-11-21T13:50:50;7.43;;;2.40;;
81396;SDS011;70852;49.908;8.126;2023-11-21T13:53:35;5.22;;;2.05;;
81396;SDS011;70852;49.908;8.126;2023-11-21T13:56:03;6.15;;;3.00;;
81396;SDS011;70852;49.908;8.126;2023-11-21T13:58:31;4.82;;;2.40;;
81396;SDS011;70852;49.908;8.126;2023-11-21T14:01:09;4.05;;;1.92;;
81396;SDS011;70852;49.908;8.126;2023-11-21T14:03:59;4.25;;;1.95;;
81396;SDS011;70852;49.908;8.126;2023-11-21T14:06:43;5.93;;;2.10;;
81396;SDS011;70852;49.908;8.126;2023-11-21T14:09:17;5.90;;;2.30;;
81396;SDS011;70852;49.908;8.126;2023-11-21T14:14:19;5.15;;;2.17;;
81396;SDS011;70852;49.908;8.126;2023-11-21T14:16:50;4.90;;;2.10;;
81396;SDS011;70852;49.908;8.126;2023-11-21T14:19:16;4.85;;;2.20;;
81396;SDS011;70852;49.908;8.126;2023-11-21T14:21:43;5.10;;;2.22;;
81396;SDS011;70852;49.908;8.126;2023-11-21T14:24:08;6.38;;;2.30;;
81396;SDS011;70852;49.908;8.126;2023-11-21T14:26:38;3.70;;;1.88;;
81396;SDS011;70852;49.908;8.126;2023-11-21T14:29:07;4.60;;;2.13;;
81396;SDS011;70852;49.908;8.126;2023-11-21T14:31:39;5.80;;;2.67;;
81396;SDS011;70852;49.908;8.126;2023-11-21T14:34:05;7.20;;;2.45;;
81396;SDS011;70852;49.908;8.126;2023-11-21T14:36:32;4.57;;;2.13;;
81396;SDS011;70852;49.908;8.126;2023-11-21T14:39:03;5.50;;;2.05;;
81396;SDS011;70852;49.908;8.126;2023-11-21T14:41:45;5.53;;;2.03;;
81396;SDS011;70852;49.908;8.126;2023-11-21T14:44:11;5.07;;;2.05;;
81396;SDS011;70852;49.908;8.126;2023-11-21T14:46:37;4.28;;;2.20;;
81396;SDS011;70852;49.908;8.126;2023-11-21T14:49:04;5.07;;;2.38;;
81396;SDS011;70852;49.908;8.126;2023-11-21T14:51:48;6.45;;;2.20;;
81396;SDS011;70852;49.908;8.126;2023-11-21T14:54:25;6.30;;;2.13;;
81396;SDS011;70852;49.908;8.126;2023-11-21T14:57:10;4.10;;;1.95;;
81396;SDS011;70852;49.908;8.126;2023-11-21T14:59:48;9.15;;;2.58;;
81396;SDS011;70852;49.908;8.126;2023-11-21T15:02:25;6.40;;;2.10;;
81396;SDS011;70852;49.908;8.126;2023-11-21T15:05:10;5.00;;;2.20;;
81396;SDS011;70852;49.908;8.126;2023-11-21T15:07:43;6.40;;;2.60;;
81396;SDS011;70852;49.908;8.126;2023-11-21T15:10:12;5.38;;;2.10;;
81396;SDS011;70852;49.908;8.126;2023-11-21T15:12:42;4.22;;;2.30;;
81396;SDS011;70852;49.908;8.126;2023-11-21T15:15:08;6.75;;;2.25;;
81396;SDS011;70852;49.908;8.126;2023-11-21T15:17:37;5.60;;;2.33;;
81396;SDS011;70852;49.908;8.126;2023-11-21T15:20:03;5.35;;;2.40;;
81396;SDS011;70852;49.908;8.126;2023-11-21T15:22:31;7.13;;;2.50;;
81396;SDS011;70852;49.908;8.126;2023-11-21T15:24:59;5.57;;;2.45;;